createdAt,value
2022-10-30T00:00:53.570Z,98109.03
2022-10-30T00:03:22.144Z,98108.72
2022-10-30T00:05:52.707Z,98109.03
2022-10-30T00:08:22.667Z,98105.16
2022-10-30T00:10:52.600Z,98103.19
2022-10-30T00:13:22.169Z,98104.34
2022-10-30T00:15:51.936Z,98109.88
2022-10-30T00:18:21.626Z,98103.53
2022-10-30T00:20:50.552Z,98099.63
2022-10-30T00:23:20.265Z,98103.53
2022-10-30T00:25:48.755Z,98096.34
2022-10-30T00:28:18.519Z,98098.81
2022-10-30T00:30:46.945Z,98097.16
2022-10-30T00:33:15.404Z,98098.00
2022-10-30T00:35:49.597Z,98093.59
2022-10-30T00:38:18.145Z,98090.50
2022-10-30T00:40:46.672Z,98089.69
2022-10-30T00:43:35.103Z,98091.34
2022-10-30T00:46:17.826Z,98084.16
2022-10-30T00:48:50.969Z,98079.78
2022-10-30T00:51:20.423Z,98083.03
2022-10-30T00:53:50.019Z,98068.72
2022-10-30T00:56:21.293Z,98074.25
2022-10-30T00:58:55.059Z,98068.72
2022-10-30T01:01:26.937Z,98064.00
2022-10-30T01:03:58.996Z,98064.81
2022-10-30T01:06:29.495Z,98058.47
2022-10-30T01:09:00.024Z,98059.28
2022-10-30T01:11:29.242Z,98053.75
2022-10-30T01:14:03.015Z,98047.41
2022-10-30T01:16:58.323Z,98050.50
2022-10-30T01:19:39.621Z,98054.91
2022-10-30T01:22:23.189Z,98056.03
2022-10-30T01:25:04.664Z,98056.84
2022-10-30T01:27:40.831Z,98058.78
2022-10-30T01:30:25.466Z,98056.03
2022-10-30T01:33:05.680Z,98057.66
2022-10-30T01:35:41.761Z,98057.16
2022-10-30T01:38:17.879Z,98056.03
2022-10-30T01:40:46.371Z,98058.78
2022-10-30T01:43:15.731Z,98061.56
2022-10-30T01:46:05.584Z,98053.25
2022-10-30T01:48:58.824Z,98056.03
2022-10-30T01:51:49.881Z,98052.44
2022-10-30T01:54:27.802Z,98057.16
2022-10-30T01:57:07.740Z,98052.44
2022-10-30T01:59:42.696Z,98051.63
2022-10-30T02:02:13.481Z,98057.16
2022-10-30T02:04:42.658Z,98057.16
2022-10-30T02:07:12.389Z,98050.50
2022-10-30T02:09:46.852Z,98049.69
2022-10-30T02:12:16.627Z,98050.00
2022-10-30T02:14:48.922Z,98050.50
2022-10-30T02:17:19.900Z,98046.91
2022-10-30T02:19:51.098Z,98048.88
2022-10-30T02:22:20.900Z,98052.44
2022-10-30T02:24:49.342Z,98038.94
2022-10-30T02:27:18.187Z,98043.34
2022-10-30T02:29:46.572Z,98043.34
2022-10-30T02:32:14.995Z,98037.81
2022-10-30T02:34:44.029Z,98043.34
2022-10-30T02:37:15.419Z,98047.25
2022-10-30T02:39:45.479Z,98036.19
2022-10-30T02:42:13.981Z,98036.19
2022-10-30T02:44:42.523Z,98040.06
2022-10-30T02:47:10.915Z,98030.66
2022-10-30T02:49:39.342Z,98041.72
2022-10-30T02:52:08.187Z,98040.91
2022-10-30T02:54:36.794Z,98042.03
2022-10-30T02:57:06.568Z,98035.38
2022-10-30T02:59:34.981Z,98035.38
2022-10-30T03:02:03.632Z,98029.03
2022-10-30T03:04:32.220Z,98035.38
2022-10-30T03:07:00.610Z,98024.31
2022-10-30T03:09:29.454Z,98024.63
2022-10-30T03:11:57.849Z,98023.50
2022-10-30T03:14:27.648Z,98034.56
2022-10-30T03:16:56.172Z,98029.03
2022-10-30T03:19:24.574Z,98029.03
2022-10-30T03:21:54.805Z,98018.28
2022-10-30T03:24:23.191Z,98023.50
2022-10-30T03:26:51.603Z,98017.97
2022-10-30T03:29:20.057Z,98015.19
2022-10-30T03:31:49.942Z,98022.69
2022-10-30T03:34:22.308Z,98017.97
2022-10-30T03:36:50.735Z,98011.63
2022-10-30T03:39:19.158Z,98012.44
2022-10-30T03:41:48.104Z,98010.81
2022-10-30T03:44:16.969Z,98019.09
2022-10-30T03:46:45.807Z,98017.47
2022-10-30T03:49:35.842Z,98020.22
2022-10-30T03:52:09.488Z,98015.53
2022-10-30T03:54:37.916Z,98017.47
2022-10-30T03:57:06.358Z,98027.38
2022-10-30T03:59:43.831Z,98027.38
2022-10-30T04:02:35.072Z,98026.56
2022-10-30T04:05:05.467Z,98021.88
2022-10-30T04:07:33.933Z,98021.03
2022-10-30T04:10:02.369Z,98026.56
2022-10-30T04:12:31.418Z,98021.03
2022-10-30T04:14:59.793Z,98017.16
2022-10-30T04:17:28.228Z,98021.88
2022-10-30T04:19:58.170Z,98021.03
2022-10-30T04:22:27.916Z,98034.56
2022-10-30T04:24:56.307Z,98045.59
2022-10-30T04:27:25.322Z,98035.38
2022-10-30T04:29:54.155Z,98034.56
2022-10-30T04:32:22.868Z,98040.06
2022-10-30T04:34:53.246Z,98040.91
2022-10-30T04:37:21.670Z,98039.25
2022-10-30T04:39:51.750Z,98036.50
2022-10-30T04:42:25.448Z,98040.06
2022-10-30T04:44:55.067Z,98046.41
2022-10-30T04:47:23.596Z,98034.56
2022-10-30T04:49:52.036Z,98045.59
2022-10-30T04:52:20.459Z,98049.50
2022-10-30T04:54:48.841Z,98049.19
2022-10-30T04:57:18.769Z,98051.13
2022-10-30T04:59:47.292Z,98054.72
2022-10-30T05:02:16.096Z,98051.13
2022-10-30T05:04:44.738Z,98053.91
2022-10-30T05:07:14.088Z,98045.91
2022-10-30T05:09:42.622Z,98051.13
2022-10-30T05:12:11.425Z,98051.13
2022-10-30T05:14:52.186Z,98052.75
2022-10-30T05:17:21.024Z,98049.50
2022-10-30T05:19:50.484Z,98050.31
2022-10-30T05:22:18.950Z,98042.03
2022-10-30T05:24:47.352Z,98042.84
2022-10-30T05:27:17.087Z,98036.19
2022-10-30T05:29:45.524Z,98045.59
2022-10-30T05:32:15.301Z,98039.25
2022-10-30T05:34:49.657Z,98038.44
2022-10-30T05:37:21.914Z,98034.56
2022-10-30T05:39:50.623Z,98040.91
2022-10-30T05:42:26.482Z,98034.56
2022-10-30T05:45:00.970Z,98040.06
2022-10-30T05:47:33.675Z,98038.44
2022-10-30T05:50:03.170Z,98039.25
2022-10-30T05:52:31.675Z,98042.84
2022-10-30T05:55:01.893Z,98043.97
2022-10-30T05:57:47.872Z,98045.59
2022-10-30T06:00:17.699Z,98049.50
2022-10-30T06:02:47.496Z,98056.66
2022-10-30T06:05:18.171Z,98049.50
2022-10-30T06:07:47.363Z,98055.03
2022-10-30T06:10:16.134Z,98062.19
2022-10-30T06:12:59.861Z,98052.59
2022-10-30T06:15:46.344Z,98055.03
2022-10-30T06:18:16.178Z,98057.78
2022-10-30T06:20:46.998Z,98055.84
2022-10-30T06:23:38.125Z,98049.50
2022-10-30T06:26:13.928Z,98055.03
2022-10-30T06:28:47.805Z,98055.03
2022-10-30T06:31:16.906Z,98056.97
2022-10-30T06:33:46.678Z,98059.75
2022-10-30T06:36:17.402Z,98057.78
2022-10-30T06:38:46.113Z,98048.69
2022-10-30T06:41:17.884Z,98060.88
2022-10-30T06:44:05.155Z,98058.94
2022-10-30T06:46:34.982Z,98058.09
2022-10-30T06:49:05.515Z,98058.94
2022-10-30T06:51:33.996Z,98056.16
2022-10-30T06:54:03.075Z,98058.09
2022-10-30T06:56:40.237Z,98057.28
2022-10-30T06:59:16.959Z,98055.66
2022-10-30T07:01:47.933Z,98055.34
2022-10-30T07:04:25.464Z,98058.94
2022-10-30T07:06:53.917Z,98052.59
2022-10-30T07:09:23.336Z,98060.88
2022-10-30T07:11:56.664Z,98062.00
2022-10-30T07:14:44.524Z,98065.59
2022-10-30T07:17:30.656Z,98069.97
2022-10-30T07:20:05.622Z,98062.81
2022-10-30T07:22:34.515Z,98064.47
2022-10-30T07:25:03.828Z,98067.53
2022-10-30T07:27:56.635Z,98067.53
2022-10-30T07:30:37.992Z,98068.34
2022-10-30T07:33:17.280Z,98062.81
2022-10-30T07:36:12.580Z,98063.63
2022-10-30T07:38:54.316Z,98065.59
2022-10-30T07:41:47.360Z,98065.59
2022-10-30T07:44:36.619Z,98066.72
2022-10-30T07:47:27.128Z,98058.44
2022-10-30T07:50:14.186Z,98059.25
2022-10-30T07:52:43.957Z,98054.84
2022-10-30T07:55:13.643Z,98061.19
2022-10-30T07:57:44.757Z,98059.56
2022-10-30T08:00:32.001Z,98068.66
2022-10-30T08:03:12.496Z,98066.72
2022-10-30T08:05:51.906Z,98052.91
2022-10-30T08:08:32.429Z,98050.44
2022-10-30T08:11:10.371Z,98058.44
2022-10-30T08:13:38.950Z,98060.38
2022-10-30T08:16:07.984Z,98054.03
2022-10-30T08:18:36.497Z,98061.19
2022-10-30T08:21:06.060Z,98059.56
2022-10-30T08:23:35.856Z,98055.66
2022-10-30T08:26:10.333Z,98058.75
2022-10-30T08:28:38.865Z,98054.03
2022-10-30T08:31:10.809Z,98048.81
2022-10-30T08:34:06.376Z,98046.06
2022-10-30T08:36:49.520Z,98049.13
2022-10-30T08:39:20.006Z,98038.09
2022-10-30T08:42:26.582Z,98036.13
2022-10-30T08:44:57.048Z,98046.06
2022-10-30T08:48:03.314Z,98046.88
2022-10-30T08:50:36.372Z,98036.13
2022-10-30T08:53:06.359Z,98041.34
2022-10-30T08:55:37.156Z,98042.16
2022-10-30T08:58:09.311Z,98036.63
2022-10-30T09:00:38.855Z,98033.06
2022-10-30T09:03:13.210Z,98034.69
2022-10-30T09:05:47.479Z,98033.56
2022-10-30T09:08:18.750Z,98033.56
2022-10-30T09:11:07.412Z,98025.25
2022-10-30T09:13:36.400Z,98029.97
2022-10-30T09:16:07.419Z,98019.72
2022-10-30T09:18:38.104Z,98029.66
2022-10-30T09:21:07.454Z,98032.75
2022-10-30T09:23:45.331Z,98032.41
2022-10-30T09:26:47.246Z,98029.66
2022-10-30T09:29:23.161Z,98028.53
2022-10-30T09:32:11.162Z,98028.84
2022-10-30T09:34:50.857Z,98035.19
2022-10-30T09:37:35.445Z,98033.56
2022-10-30T09:40:04.588Z,98029.66
2022-10-30T09:42:43.467Z,98037.94
2022-10-30T09:45:52.035Z,98032.41
2022-10-30T09:48:48.146Z,98036.00
2022-10-30T09:51:38.203Z,98030.78
2022-10-30T09:54:10.775Z,98036.81
2022-10-30T09:56:48.125Z,98032.41
2022-10-30T09:59:33.705Z,98038.44
2022-10-30T10:02:15.466Z,98040.72
2022-10-30T10:04:47.524Z,98039.09
2022-10-30T10:07:21.589Z,98035.19
2022-10-30T10:10:25.202Z,98041.03
2022-10-30T10:13:02.178Z,98047.88
2022-10-30T10:15:40.392Z,98046.25
2022-10-30T10:18:19.114Z,98042.34
2022-10-30T10:20:52.370Z,98046.25
2022-10-30T10:23:31.194Z,98042.34
2022-10-30T10:26:06.078Z,98042.34
2022-10-30T10:28:53.696Z,98036.81
2022-10-30T10:31:34.738Z,98036.81
2022-10-30T10:34:19.845Z,98034.06
2022-10-30T10:36:55.795Z,98031.28
2022-10-30T10:39:45.355Z,98030.47
2022-10-30T10:42:26.136Z,98026.56
2022-10-30T10:45:13.735Z,98021.03
2022-10-30T10:48:17.287Z,98021.88
2022-10-30T10:50:50.348Z,98016.34
2022-10-30T10:53:23.390Z,98024.63
2022-10-30T10:55:55.668Z,98014.38
2022-10-30T10:58:30.468Z,98017.97
2022-10-30T11:01:00.251Z,98012.44
2022-10-30T11:03:41.946Z,98014.06
2022-10-30T11:06:21.279Z,98015.19
2022-10-30T11:08:50.484Z,98011.31
2022-10-30T11:11:18.971Z,98013.25
2022-10-30T11:13:47.535Z,98008.53
2022-10-30T11:16:26.776Z,98006.59
2022-10-30T11:19:00.811Z,98007.72
2022-10-30T11:21:34.456Z,98002.19
2022-10-30T11:24:02.840Z,98004.66
2022-10-30T11:26:34.614Z,97999.13
2022-10-30T11:29:06.460Z,97991.97
2022-10-30T11:31:37.946Z,97997.16
2022-10-30T11:34:25.822Z,97994.72
2022-10-30T11:36:55.530Z,97991.97
2022-10-30T11:39:25.640Z,97996.34
2022-10-30T11:42:02.261Z,97999.13
2022-10-30T11:44:36.139Z,97993.59
2022-10-30T11:47:06.425Z,97993.59
2022-10-30T11:49:45.759Z,97995.22
2022-10-30T11:52:16.624Z,97989.69
2022-10-30T11:54:49.169Z,97985.28
2022-10-30T11:57:24.346Z,97982.53
2022-10-30T11:59:59.345Z,97983.34
2022-10-30T12:02:43.527Z,97982.53
2022-10-30T12:05:49.392Z,97978.63
2022-10-30T12:08:22.243Z,97974.75
2022-10-30T12:11:02.722Z,97971.00
2022-10-30T12:13:37.787Z,97974.78
2022-10-30T12:16:15.418Z,97980.97
2022-10-30T12:18:54.967Z,97983.09
2022-10-30T12:21:26.234Z,97974.16
2022-10-30T12:23:58.527Z,97971.88
2022-10-30T12:26:29.524Z,97977.41
2022-10-30T12:29:01.443Z,97968.00
2022-10-30T12:31:36.676Z,97971.25
2022-10-30T12:34:25.096Z,97967.03
2022-10-30T12:37:01.261Z,97962.00
2022-10-30T12:39:36.260Z,97959.72
2022-10-30T12:42:09.983Z,97962.47
2022-10-30T12:44:43.959Z,97958.28
2022-10-30T12:47:14.895Z,97959.09
2022-10-30T12:49:49.489Z,97953.25
2022-10-30T12:52:25.015Z,97949.34
2022-10-30T12:55:00.412Z,97957.66
2022-10-30T12:57:34.495Z,97949.84
2022-10-30T13:00:05.726Z,97936.34
2022-10-30T13:02:43.653Z,97939.41
2022-10-30T13:05:26.043Z,97935.97
2022-10-30T13:08:05.832Z,97934.66
2022-10-30T13:10:44.362Z,97928.94
2022-10-30T13:13:17.911Z,97927.66
2022-10-30T13:15:50.812Z,97927.66
2022-10-30T13:18:21.475Z,97927.66
2022-10-30T13:21:02.559Z,97931.56
2022-10-30T13:23:39.259Z,97928.28
2022-10-30T13:26:16.910Z,97925.84
2022-10-30T13:28:52.308Z,97925.03
2022-10-30T13:31:30.842Z,97924.53
2022-10-30T13:34:06.901Z,97930.56
2022-10-30T13:36:42.383Z,97928.94
2022-10-30T13:39:22.254Z,97929.44
2022-10-30T13:42:09.237Z,97922.75
2022-10-30T13:44:50.061Z,97928.59
2022-10-30T13:47:31.456Z,97935.78
2022-10-30T13:50:15.943Z,97929.44
2022-10-30T13:52:49.741Z,97936.25
2022-10-30T13:55:23.972Z,97929.91
2022-10-30T13:57:58.495Z,97929.09
2022-10-30T14:00:38.588Z,97926.66
2022-10-30T14:03:22.500Z,97931.56
2022-10-30T14:05:59.552Z,97924.38
2022-10-30T14:08:36.869Z,97918.84
2022-10-30T14:11:11.911Z,97927.66
2022-10-30T14:13:52.030Z,97928.47
2022-10-30T14:16:35.947Z,97934.00
2022-10-30T14:19:05.876Z,97923.75
2022-10-30T14:21:42.415Z,97927.00
2022-10-30T14:24:16.881Z,97934.16
2022-10-30T14:26:52.828Z,97932.53
2022-10-30T14:29:46.625Z,97932.53
2022-10-30T14:32:39.151Z,97938.22
2022-10-30T14:35:39.271Z,97941.31
2022-10-30T14:38:28.712Z,97942.13
2022-10-30T14:41:31.493Z,97944.09
2022-10-30T14:44:21.637Z,97939.69
2022-10-30T14:47:06.645Z,97943.59
2022-10-30T14:49:47.448Z,97940.34
2022-10-30T14:52:22.811Z,97944.72
2022-10-30T14:54:59.037Z,97940.00
2022-10-30T14:57:48.169Z,97943.59
2022-10-30T15:00:39.623Z,97947.19
2022-10-30T15:03:15.468Z,97950.75
2022-10-30T15:05:52.357Z,97949.94
2022-10-30T15:08:34.260Z,97942.47
2022-10-30T15:11:18.170Z,97951.06
2022-10-30T15:13:49.642Z,97947.81
2022-10-30T15:16:22.428Z,97947.81
2022-10-30T15:18:58.522Z,97955.28
2022-10-30T15:21:31.015Z,97951.41
2022-10-30T15:24:01.087Z,97946.69
2022-10-30T15:26:35.576Z,97943.09
2022-10-30T15:29:05.268Z,97947.50
2022-10-30T15:31:35.081Z,97948.47
2022-10-30T15:34:03.563Z,97948.97
2022-10-30T15:36:41.536Z,97951.09
2022-10-30T15:39:12.809Z,97954.38
2022-10-30T15:41:45.728Z,97964.00
2022-10-30T15:46:54.300Z,97960.91
2022-10-30T15:49:31.611Z,97958.13
2022-10-30T15:52:02.724Z,97963.34
2022-10-30T15:54:33.141Z,97958.13
2022-10-30T15:57:36.934Z,97957.00
2022-10-30T15:59:54.763Z,97963.34
2022-10-30T16:02:26.917Z,97957.00
2022-10-30T16:04:55.571Z,97964.97
2022-10-30T16:07:26.103Z,97961.41
2022-10-30T16:09:56.236Z,97968.88
2022-10-30T16:12:26.737Z,97968.88
2022-10-30T16:14:55.651Z,97965.78
2022-10-30T16:17:26.960Z,97964.16
2022-10-30T16:20:00.907Z,97963.34
2022-10-30T16:22:33.033Z,97969.69
2022-10-30T16:25:01.639Z,97980.75
2022-10-30T16:27:30.031Z,97980.75
2022-10-30T16:30:00.830Z,97978.00
2022-10-30T16:32:32.844Z,97977.50
2022-10-30T16:35:03.603Z,97985.78
2022-10-30T16:37:35.640Z,97987.75
2022-10-30T16:40:13.119Z,97981.53
2022-10-30T16:42:42.012Z,97982.84
2022-10-30T16:45:51.713Z,97985.09
2022-10-30T16:48:27.930Z,97982.66
2022-10-30T16:51:01.717Z,97990.47
2022-10-30T16:53:31.099Z,97981.66
2022-10-30T16:56:00.795Z,97989.47
2022-10-30T16:58:31.780Z,97991.75
2022-10-30T17:01:05.581Z,97992.88
2022-10-30T17:03:39.120Z,97996.78
2022-10-30T17:06:25.651Z,98003.44
2022-10-30T17:08:58.328Z,98000.19
2022-10-30T17:11:38.756Z,97996.28
2022-10-30T17:14:19.092Z,97994.66
2022-10-30T17:16:59.521Z,98006.53
2022-10-30T17:19:50.225Z,98003.63
2022-10-30T17:22:21.325Z,98007.38
2022-10-30T17:24:50.004Z,98001.53
2022-10-30T17:27:32.571Z,98004.78
2022-10-30T17:30:01.025Z,98008.88
2022-10-30T17:32:41.971Z,98016.88
2022-10-30T17:35:16.672Z,98016.88
2022-10-30T17:37:45.154Z,98016.38
2022-10-30T17:40:14.515Z,98023.81
2022-10-30T17:42:43.036Z,98024.94
2022-10-30T17:45:14.415Z,98022.19
2022-10-30T17:47:42.857Z,98021.38
2022-10-30T17:50:11.572Z,98023.31
2022-10-30T17:52:41.914Z,98020.56
2022-10-30T17:55:24.217Z,98030.47
2022-10-30T17:57:53.036Z,98030.81
2022-10-30T18:00:21.853Z,98038.78
2022-10-30T18:02:50.269Z,98036.00
2022-10-30T18:05:21.118Z,98037.97
2022-10-30T18:07:50.990Z,98037.16
2022-10-30T18:10:19.538Z,98038.78
2022-10-30T18:12:48.015Z,98050.66
2022-10-30T18:15:29.025Z,98050.66
2022-10-30T18:17:58.187Z,98052.31
2022-10-30T18:20:27.152Z,98054.25
2022-10-30T18:22:57.752Z,98065.00
2022-10-30T18:25:28.410Z,98065.00
2022-10-30T18:27:57.005Z,98066.97
2022-10-30T18:30:25.838Z,98070.53
2022-10-30T18:32:54.283Z,98068.91
2022-10-30T18:35:29.733Z,98073.59
2022-10-30T18:38:00.012Z,98079.97
2022-10-30T18:40:28.953Z,98083.84
2022-10-30T18:42:58.355Z,98073.91
2022-10-30T18:45:29.046Z,98076.69
2022-10-30T18:47:58.792Z,98079.78
2022-10-30T18:50:30.290Z,98077.31
2022-10-30T18:53:01.382Z,98080.09
2022-10-30T18:55:34.796Z,98075.69
2022-10-30T18:58:04.203Z,98074.06
2022-10-30T19:00:44.842Z,98080.72
2022-10-30T19:03:19.695Z,98081.84
2022-10-30T19:05:49.731Z,98078.28
2022-10-30T19:08:19.498Z,98076.66
2022-10-30T19:10:48.316Z,98078.59
2022-10-30T19:13:19.758Z,98079.72
2022-10-30T19:15:52.125Z,98081.69
2022-10-30T19:18:25.317Z,98077.78
2022-10-30T19:21:13.081Z,98073.88
2022-10-30T19:23:44.002Z,98084.31
2022-10-30T19:26:13.645Z,98078.44
2022-10-30T19:28:42.398Z,98078.94
2022-10-30T19:31:14.421Z,98083.34
2022-10-30T19:33:42.978Z,98081.91
2022-10-30T19:36:27.826Z,98078.84
2022-10-30T19:38:57.746Z,98077.72
2022-10-30T19:41:26.294Z,98078.53
2022-10-30T19:43:55.217Z,98084.56
2022-10-30T19:46:23.657Z,98087.31
2022-10-30T19:49:00.158Z,98082.59
2022-10-30T19:51:29.435Z,98090.91
2022-10-30T19:53:59.238Z,98089.75
2022-10-30T19:56:27.706Z,98080.34
2022-10-30T19:58:56.086Z,98093.03
2022-10-30T20:01:24.683Z,98086.69
2022-10-30T20:03:53.328Z,98090.25
2022-10-30T20:06:22.068Z,98086.84
2022-10-30T20:08:50.491Z,98094.03
2022-10-30T20:11:20.234Z,98088.50
2022-10-30T20:13:52.036Z,98086.84
2022-10-30T20:16:22.992Z,98088.50
2022-10-30T20:18:51.466Z,98090.13
2022-10-30T20:21:20.414Z,98093.38
2022-10-30T20:23:48.878Z,98095.66
2022-10-30T20:26:27.582Z,98098.59
2022-10-30T20:28:56.283Z,98095.00
2022-10-30T20:31:24.777Z,98100.53
2022-10-30T20:33:53.264Z,98103.00
2022-10-30T20:36:21.651Z,98095.00
2022-10-30T20:38:50.093Z,98098.59
2022-10-30T20:41:23.422Z,98097.47
2022-10-30T20:43:53.458Z,98101.38
2022-10-30T20:46:22.371Z,98102.19
2022-10-30T20:48:50.864Z,98100.53
2022-10-30T20:51:19.334Z,98095.00
2022-10-30T20:53:47.814Z,98098.28
2022-10-30T20:56:16.283Z,98100.53
2022-10-30T20:58:44.737Z,98101.03
2022-10-30T21:01:14.580Z,98099.41
2022-10-30T21:03:43.080Z,98099.91
2022-10-30T21:06:11.716Z,98096.31
2022-10-30T21:08:40.135Z,98089.97
2022-10-30T21:11:08.862Z,98088.84
2022-10-30T21:13:37.971Z,98091.94
2022-10-30T21:16:09.045Z,98090.78
2022-10-30T21:18:38.711Z,98088.84
2022-10-30T21:21:11.452Z,98085.56
2022-10-30T21:23:39.876Z,98085.91
2022-10-30T21:26:10.840Z,98085.72
2022-10-30T21:28:39.395Z,98083.59
2022-10-30T21:31:09.616Z,98093.22
2022-10-30T21:33:39.457Z,98103.44
2022-10-30T21:36:12.947Z,98102.97
2022-10-30T21:38:43.088Z,98107.34
2022-10-30T21:41:12.715Z,98104.91
2022-10-30T21:43:41.247Z,98100.19
2022-10-30T21:46:11.154Z,98097.75
2022-10-30T21:48:41.095Z,98102.47
2022-10-30T21:51:11.397Z,98106.34
2022-10-30T21:53:40.428Z,98111.88
2022-10-30T21:56:10.991Z,98111.06
2022-10-30T21:58:39.512Z,98110.25
2022-10-30T22:01:13.154Z,98114.66
2022-10-30T22:03:43.097Z,98113.84
2022-10-30T22:06:12.947Z,98121.31
2022-10-30T22:08:41.647Z,98114.97
2022-10-30T22:11:11.990Z,98123.59
2022-10-30T22:13:40.928Z,98124.72
2022-10-30T22:16:12.414Z,98123.38
2022-10-30T22:18:41.587Z,98124.84
2022-10-30T22:21:13.549Z,98124.00
2022-10-30T22:23:42.817Z,98116.84
2022-10-30T22:26:14.707Z,98119.31
2022-10-30T22:28:44.114Z,98122.06
2022-10-30T22:31:14.305Z,98115.41
2022-10-30T22:33:43.128Z,98122.06
2022-10-30T22:36:17.085Z,98125.66
2022-10-30T22:38:45.410Z,98128.09
2022-10-30T22:41:16.284Z,98117.03
2022-10-30T22:43:46.811Z,98122.56
2022-10-30T22:46:16.083Z,98128.09
2022-10-30T22:48:44.864Z,98134.44
2022-10-30T22:51:16.926Z,98131.19
2022-10-30T22:53:46.348Z,98132.00
2022-10-30T22:56:17.158Z,98132.00
2022-10-30T22:58:45.920Z,98132.00
2022-10-30T23:01:15.980Z,98134.75
2022-10-30T23:03:45.211Z,98134.75
2022-10-30T23:06:15.129Z,98131.19
2022-10-30T23:08:43.600Z,98133.94
2022-10-30T23:11:12.717Z,98136.72
2022-10-30T23:13:41.410Z,98134.25
2022-10-30T23:16:14.042Z,98128.72
2022-10-30T23:18:43.483Z,98133.44
2022-10-30T23:21:14.442Z,98133.75
2022-10-30T23:23:44.742Z,98130.19
2022-10-30T23:26:14.691Z,98128.56
2022-10-30T23:28:43.616Z,98132.44
2022-10-30T23:31:18.648Z,98130.81
2022-10-30T23:33:48.450Z,98135.53
2022-10-30T23:36:18.128Z,98129.81
2022-10-30T23:38:51.784Z,98134.53
2022-10-30T23:41:20.430Z,98136.16
2022-10-30T23:43:48.900Z,98133.72
2022-10-30T23:46:17.379Z,98137.63
2022-10-30T23:48:45.807Z,98144.28
2022-10-30T23:51:14.486Z,98146.22
2022-10-30T23:58:43.778Z,98141.81
